Time;durP1;ratioP1;P1;durP2;ratioP2;P2;SDS_P1;SDS_P2;PMS_P1;PMS_P2;Temp;Humidity;BMP_temperature;BMP_pressure;BME280_temperature;BME280_humidity;BME280_pressure;Samples;Min_cycle;Max_cycle;Signal;HPM_P1;HPM_P2
2021/11/07 00:04:30;;;;;;;16.55;9.90;;;;;;;13.98;54.68;94735.28;5001006;28;20791;-76
2021/11/07 00:10:36;;;;;;;16.75;9.45;;;;;;;14.03;54.23;94705.72;4996419;28;20037;-77
2021/11/07 00:12:30;;;;;;;15.48;9.60;;;;;;;14.20;53.98;94719.09;4984855;28;20038;-74
2021/11/07 00:14:56;;;;;;;16.52;8.63;;;;;;;14.22;53.67;94732.97;5004935;28;20057;-76
2021/11/07 00:17:26;;;;;;;15.05;9.10;;;;;;;14.46;53.37;94749.34;4996073;28;20029;-77
2021/11/07 00:20:11;;;;;;;19.83;10.70;;;;;;;14.50;53.18;94755.66;5005405;28;20049;-75
2021/11/07 00:27:58;;;;;;;18.50;10.40;;;;;;;14.10;54.30;94743.47;5000378;28;20381;-74
2021/11/07 00:37:56;;;;;;;23.90;12.90;;;;;;;13.69;55.82;94739.28;4991623;28;20786;-76
2021/11/07 00:43:10;;;;;;;16.65;10.90;;;;;;;13.77;55.60;94736.97;4998159;28;20143;-76
2021/11/07 00:50:46;;;;;;;16.05;9.98;;;;;;;13.96;54.88;94740.16;5001295;28;20083;-76
2021/11/07 00:58:38;;;;;;;18.10;9.63;;;;;;;13.98;54.87;94714.69;4996838;28;20271;-75
2021/11/07 01:01:09;;;;;;;17.45;9.45;;;;;;;14.14;54.61;94721.13;4998072;28;20479;-75
2021/11/07 01:03:34;;;;;;;12.00;8.65;;;;;;;14.07;54.21;94701.31;5005984;28;20513;-76
2021/11/07 01:06:00;;;;;;;17.00;10.27;;;;;;;14.29;54.38;94711.06;5014112;28;20042;-75
2021/11/07 01:08:26;;;;;;;14.93;9.77;;;;;;;14.13;54.18;94705.41;4994772;28;20056;-76
2021/11/07 01:10:52;;;;;;;20.90;10.90;;;;;;;14.16;54.09;94704.78;5000250;28;20124;-75
2021/11/07 01:13:18;;;;;;;22.05;12.07;;;;;;;14.38;53.63;94704.63;5000563;28;20041;-76
2021/11/07 01:15:44;;;;;;;24.27;12.15;;;;;;;14.20;53.79;94689.69;4995278;28;20036;-76
2021/11/07 01:18:09;;;;;;;21.17;13.00;;;;;;;14.12;54.49;94717.22;4997322;28;20065;-75
2021/11/07 01:20:35;;;;;;;19.83;11.82;;;;;;;13.64;55.43;94685.97;4997157;28;20548;-77
2021/11/07 01:25:41;;;;;;;21.73;12.75;;;;;;;13.37;57.65;94707.53;4999778;28;20037;-76
2021/11/07 01:28:08;;;;;;;21.40;11.52;;;;;;;13.26;57.59;94688.31;4993825;28;20546;-75
2021/11/07 01:30:38;;;;;;;20.45;12.40;;;;;;;12.93;59.19;94694.28;4994548;28;20025;-75
2021/11/07 01:33:07;;;;;;;20.42;12.75;;;;;;;12.89;58.95;94667.44;5002662;28;20038;-75
2021/11/07 01:40:34;;;;;;;19.65;12.38;;;;;;;13.41;57.26;94703.16;5004063;28;20045;-76
2021/11/07 01:43:00;;;;;;;22.15;11.30;;;;;;;13.28;57.33;94674.66;4988918;28;20449;-76
2021/11/07 01:45:34;;;;;;;26.92;12.63;;;;;;;13.48;57.29;94695.50;5000038;28;20022;-76
2021/11/07 01:48:12;;;;;;;18.65;11.52;;;;;;;13.52;57.00;94695.66;4997395;28;20697;-73
2021/11/07 01:50:41;;;;;;;21.00;11.68;;;;;;;13.53;56.63;94683.88;4999334;28;20118;-75
2021/11/07 01:55:52;;;;;;;18.60;12.02;;;;;;;13.69;55.58;94683.16;5001997;28;20034;-76
2021/11/07 01:58:21;;;;;;;21.42;13.15;;;;;;;13.56;56.00;94684.03;5005536;28;20092;-74
2021/11/07 02:00:50;;;;;;;22.90;11.77;;;;;;;13.60;56.87;94701.03;5000543;28;20476;-76
2021/11/07 02:03:15;;;;;;;22.77;12.85;;;;;;;13.49;56.88;94702.41;5004171;28;20120;-76
2021/11/07 02:05:41;;;;;;;22.67;10.85;;;;;;;13.52;57.42;94704.47;5006790;28;20399;-76
2021/11/07 02:08:07;;;;;;;23.33;12.30;;;;;;;13.42;57.21;94696.72;4998544;28;20067;-76
2021/11/07 02:10:34;;;;;;;23.05;12.80;;;;;;;13.45;57.53;94708.66;5005939;28;20049;-75
2021/11/07 02:13:00;;;;;;;24.45;13.32;;;;;;;13.47;57.31;94699.25;5004914;28;20057;-76
2021/11/07 02:15:26;;;;;;;18.40;10.98;;;;;;;13.37;56.77;94674.69;5001321;28;20316;-75
2021/11/07 02:17:52;;;;;;;17.30;12.13;;;;;;;13.36;57.02;94663.22;4995361;28;20076;-76
2021/11/07 02:20:31;;;;;;;20.30;11.85;;;;;;;13.67;56.59;94693.38;4998005;28;20043;-75
2021/11/07 02:22:59;;;;;;;18.67;11.63;;;;;;;13.66;56.40;94678.44;5000180;28;20136;-75
2021/11/07 02:25:25;;;;;;;17.98;11.23;;;;;;;13.68;56.11;94680.81;5001004;28;20133;-76
2021/11/07 02:27:51;;;;;;;17.52;11.00;;;;;;;13.70;56.15;94668.69;5003739;28;20037;-77
2021/11/07 02:30:17;;;;;;;19.83;11.23;;;;;;;13.83;55.24;94667.00;5009782;28;20030;-76
2021/11/07 02:32:45;;;;;;;21.55;12.10;;;;;;;13.92;55.21;94661.66;4990905;28;20069;-76
2021/11/07 02:35:11;;;;;;;18.30;11.05;;;;;;;14.01;55.04;94679.28;5001608;28;20761;-77
2021/11/07 02:37:37;;;;;;;20.30;11.48;;;;;;;13.90;55.16;94655.81;5006151;28;21060;-76
2021/11/07 02:40:07;;;;;;;20.65;10.82;;;;;;;14.08;55.04;94678.81;5003670;28;20033;-76
2021/11/07 02:42:34;;;;;;;17.98;10.40;;;;;;;14.04;55.06;94681.31;5007447;28;20037;-75
2021/11/07 02:45:06;;;;;;;19.50;10.85;;;;;;;14.10;54.63;94679.28;5007756;28;20094;-74
2021/11/07 02:47:32;;;;;;;17.75;11.23;;;;;;;14.10;54.61;94681.97;5001252;28;20377;-76
2021/11/07 02:49:58;;;;;;;19.35;10.93;;;;;;;14.28;54.06;94669.34;5006653;28;20170;-76
2021/11/07 02:52:24;;;;;;;19.83;11.82;;;;;;;14.03;54.09;94649.56;4999083;28;20763;-76
2021/11/07 02:54:50;;;;;;;19.00;10.93;;;;;;;14.00;54.35;94650.94;5003121;28;20348;-76
2021/11/07 02:57:21;;;;;;;17.10;11.75;;;;;;;13.99;54.23;94643.22;4998982;28;20030;-75
2021/11/07 02:59:55;;;;;;;18.50;11.15;;;;;;;14.15;54.14;94679.13;5008718;28;20037;-76
2021/11/07 03:02:22;;;;;;;21.27;10.55;;;;;;;14.12;53.70;94648.47;5000005;28;20507;-76
2021/11/07 03:04:47;;;;;;;19.40;10.57;;;;;;;14.25;53.33;94652.06;5002820;28;20091;-76
2021/11/07 03:07:13;;;;;;;19.60;11.13;;;;;;;14.16;53.54;94659.31;5007179;28;20112;-75
2021/11/07 03:09:39;;;;;;;21.42;11.23;;;;;;;13.96;54.61;94692.00;5007247;28;20057;-76
2021/11/07 03:12:09;;;;;;;23.17;12.05;;;;;;;13.72;56.14;94677.19;4997416;28;20034;-76
2021/11/07 03:14:45;;;;;;;21.17;12.57;;;;;;;13.77;56.47;94678.13;5000765;28;20046;-76
2021/11/07 03:17:12;;;;;;;20.85;11.05;;;;;;;13.80;56.74;94682.84;5006879;28;20045;-76
2021/11/07 03:19:41;;;;;;;18.38;11.00;;;;;;;13.85;56.49;94680.03;5001382;28;20057;-75
2021/11/07 03:22:16;;;;;;;23.25;11.82;;;;;;;13.92;55.89;94685.72;5006547;28;20072;-75
2021/11/07 03:24:43;;;;;;;19.05;11.18;;;;;;;13.95;55.41;94685.88;5008349;28;20038;-76
2021/11/07 03:27:14;;;;;;;20.08;10.93;;;;;;;13.95;55.66;94679.72;4998611;28;20292;-76
2021/11/07 03:29:43;;;;;;;24.48;11.38;;;;;;;13.99;55.51;94686.81;5004299;28;20124;-76
2021/11/07 03:32:18;;;;;;;20.55;12.55;;;;;;;13.87;55.16;94661.81;5002898;28;20045;-75
2021/11/07 03:34:47;;;;;;;16.75;10.93;;;;;;;13.99;55.18;94686.81;5003283;28;20041;-76
2021/11/07 03:37:13;;;;;;;16.67;10.77;;;;;;;13.92;55.05;94669.69;5002575;28;20459;-75
2021/11/07 03:39:39;;;;;;;27.73;12.95;;;;;;;13.91;55.11;94674.22;5003447;28;20018;-76
2021/11/07 03:42:10;;;;;;;18.05;11.45;;;;;;;13.95;55.17;94669.03;5000615;28;20160;-75
2021/11/07 03:44:36;;;;;;;16.88;10.82;;;;;;;14.09;55.04;94680.38;5004847;28;20029;-75
2021/11/07 03:47:03;;;;;;;20.35;11.10;;;;;;;14.10;54.74;94676.59;5004995;28;20400;-76
2021/11/07 03:49:29;;;;;;;17.85;10.73;;;;;;;14.11;54.95;94678.19;5000615;28;20036;-76
2021/11/07 03:51:54;;;;;;;18.05;11.82;;;;;;;14.12;54.88;94674.41;5001468;28;20037;-76
2021/11/07 03:54:22;;;;;;;18.83;12.00;;;;;;;14.16;54.96;94678.81;4999817;28;20315;-76
2021/11/07 03:56:48;;;;;;;15.48;10.02;;;;;;;14.17;54.85;94679.63;4999304;28;20049;-76
2021/11/07 03:59:13;;;;;;;20.13;11.40;;;;;;;13.95;54.84;94639.63;4992684;28;21055;-76
2021/11/07 04:01:39;;;;;;;15.98;11.02;;;;;;;14.21;54.14;94671.75;5006760;28;20046;-76
2021/11/07 04:04:05;;;;;;;16.38;10.88;;;;;;;14.26;54.60;94684.97;5001191;28;20456;-75
2021/11/07 04:06:31;;;;;;;22.08;11.27;;;;;;;14.32;53.78;94679.16;5000964;28;20030;-76
2021/11/07 04:08:56;;;;;;;19.00;11.02;;;;;;;14.30;53.63;94680.53;4997863;28;20037;-75
2021/11/07 04:11:22;;;;;;;20.95;11.88;;;;;;;14.23;54.25;94677.56;5002826;28;20057;-75
2021/11/07 04:13:48;;;;;;;20.92;12.35;;;;;;;13.89;54.79;94675.63;5000324;28;20471;-75
2021/11/07 04:16:14;;;;;;;23.15;13.85;;;;;;;13.92;54.74;94689.19;4994022;28;20175;-75
2021/11/07 04:18:41;;;;;;;18.80;11.77;;;;;;;13.83;55.28;94679.56;5004391;28;20033;-75
2021/11/07 04:21:07;;;;;;;17.65;11.05;;;;;;;13.92;55.36;94697.22;4997658;28;20587;-75
2021/11/07 04:23:32;;;;;;;18.73;12.10;;;;;;;13.96;55.11;94700.03;4993174;28;20112;-75
2021/11/07 04:25:58;;;;;;;17.73;11.40;;;;;;;13.97;54.98;94682.91;4990795;28;20038;-76
2021/11/07 04:28:25;;;;;;;23.65;11.43;;;;;;;13.99;55.10;94680.69;4999691;28;20046;-76
2021/11/07 04:30:51;;;;;;;18.15;11.38;;;;;;;13.89;55.24;94660.38;5003431;28;20068;-76
2021/11/07 04:33:16;;;;;;;19.83;11.45;;;;;;;14.03;55.30;94668.28;5003179;28;20148;-75
2021/11/07 04:35:42;;;;;;;19.95;11.55;;;;;;;14.02;54.73;94656.78;4998665;28;20797;-75
2021/11/07 04:38:08;;;;;;;18.60;10.23;;;;;;;13.86;55.52;94626.25;5004310;28;20041;-74
2021/11/07 04:40:33;;;;;;;20.35;12.43;;;;;;;14.00;55.03;94655.50;5005390;28;20049;-76
2021/11/07 04:42:59;;;;;;;28.55;20.20;;;;;;;14.01;54.78;94673.13;4995482;28;20021;-75
2021/11/07 04:45:24;;;;;;;29.08;17.85;;;;;;;13.66;55.56;94657.03;5001680;28;20926;-76
2021/11/07 04:47:50;;;;;;;24.50;14.48;;;;;;;13.41;56.38;94649.72;4999031;28;20578;-76
2021/11/07 04:50:18;;;;;;;24.20;13.93;;;;;;;13.43;57.06;94666.25;5001009;28;20068;-74
2021/11/07 04:52:44;;;;;;;22.50;13.80;;;;;;;13.45;56.94;94677.38;4997966;28;20079;-74
2021/11/07 04:55:11;;;;;;;22.52;13.05;;;;;;;13.52;56.76;94680.41;5002662;28;20093;-75
2021/11/07 04:57:42;;;;;;;24.13;14.15;;;;;;;13.32;57.28;94667.59;4997665;28;20383;-75
2021/11/07 05:00:17;;;;;;;19.90;12.00;;;;;;;13.13;58.16;94675.88;5001938;28;20045;-76
2021/11/07 05:02:43;;;;;;;26.60;12.98;;;;;;;13.03;59.17;94676.13;4995645;28;20134;-75
2021/11/07 05:05:10;;;;;;;20.98;13.10;;;;;;;12.84;58.79;94648.88;5001376;28;20675;-75
2021/11/07 05:07:38;;;;;;;19.50;11.60;;;;;;;13.07;58.54;94678.97;5001952;28;20056;-75
2021/11/07 05:10:04;;;;;;;21.42;12.23;;;;;;;13.02;58.39;94674.56;5003018;28;20030;-76
2021/11/07 05:12:31;;;;;;;24.02;12.88;;;;;;;13.10;58.80;94671.16;4997651;28;20626;-75
2021/11/07 05:14:56;;;;;;;30.92;13.45;;;;;;;13.10;58.40;94660.47;5001992;28;20060;-76
2021/11/07 05:17:22;;;;;;;18.23;11.68;;;;;;;13.13;58.18;94649.16;4999739;28;20382;-75
2021/11/07 05:19:48;;;;;;;23.20;13.25;;;;;;;13.39;57.93;94667.97;5000041;28;20113;-74
2021/11/07 05:22:14;;;;;;;17.80;12.05;;;;;;;13.46;57.53;94670.16;5004168;28;20130;-75
2021/11/07 05:24:39;;;;;;;22.92;12.20;;;;;;;13.50;57.48;94668.44;5003416;28;20034;-76
2021/11/07 05:27:05;;;;;;;17.90;11.07;;;;;;;13.53;57.16;94662.50;5002347;28;20064;-76
2021/11/07 05:29:30;;;;;;;21.10;11.90;;;;;;;13.54;57.01;94662.19;5001387;28;20045;-76
2021/11/07 05:31:57;;;;;;;19.75;11.05;;;;;;;13.60;56.78;94662.84;5005551;28;20048;-76
2021/11/07 05:34:23;;;;;;;17.77;11.82;;;;;;;13.89;55.82;94680.97;5005668;28;20053;-75
2021/11/07 05:36:49;;;;;;;29.00;13.88;;;;;;;13.72;56.65;94676.41;5000862;28;20021;-75
2021/11/07 05:39:14;;;;;;;25.52;12.82;;;;;;;13.52;57.01;94667.03;5007439;28;20030;-75
2021/11/07 05:41:39;;;;;;;22.83;13.65;;;;;;;13.44;57.66;94659.81;5004819;28;20388;-76
2021/11/07 05:44:05;;;;;;;20.83;12.77;;;;;;;13.61;57.72;94686.59;5006592;28;20040;-76
2021/11/07 05:46:31;;;;;;;20.85;11.98;;;;;;;13.61;57.75;94664.41;5002170;28;20076;-75
2021/11/07 05:48:57;;;;;;;21.13;11.55;;;;;;;13.67;57.88;94673.88;5007047;28;20243;-75
2021/11/07 05:51:23;;;;;;;19.05;12.85;;;;;;;13.76;57.40;94672.00;5007868;28;20052;-76
2021/11/07 05:53:49;;;;;;;20.92;12.18;;;;;;;13.73;57.14;94660.06;4999468;28;20096;-75
2021/11/07 05:56:15;;;;;;;22.30;12.25;;;;;;;13.81;57.29;94671.06;5007380;28;20137;-76
2021/11/07 05:58:40;;;;;;;19.48;11.85;;;;;;;14.05;56.88;94684.78;5016280;28;20048;-76
2021/11/07 06:01:11;;;;;;;26.38;14.90;;;;;;;13.94;57.16;94680.81;5003101;28;20066;-75
2021/11/07 06:03:37;;;;;;;25.65;13.98;;;;;;;13.99;57.28;94684.16;5002575;28;20025;-74
2021/11/07 06:06:03;;;;;;;24.45;13.93;;;;;;;14.14;56.54;94689.03;5022911;28;20042;-76
2021/11/07 06:08:29;;;;;;;23.55;15.35;;;;;;;13.91;57.69;94679.56;5000732;28;20121;-75
2021/11/07 06:10:54;;;;;;;26.23;15.52;;;;;;;14.23;56.67;94689.03;5002919;28;20041;-76
2021/11/07 06:13:20;;;;;;;23.85;14.32;;;;;;;14.26;56.34;94691.09;5001929;28;20551;-75
2021/11/07 06:15:46;;;;;;;22.15;13.00;;;;;;;14.28;56.05;94690.75;5004116;28;20982;-75
2021/11/07 06:18:11;;;;;;;23.17;13.52;;;;;;;14.20;56.78;94713.75;5010892;28;20033;-76
2021/11/07 06:20:37;;;;;;;21.23;13.20;;;;;;;14.15;56.80;94690.63;5004441;28;20041;-76
2021/11/07 06:23:05;;;;;;;25.58;15.13;;;;;;;14.13;56.99;94686.69;5007579;28;20152;-76
2021/11/07 06:25:31;;;;;;;24.83;14.60;;;;;;;14.30;57.00;94709.97;4998300;28;20045;-75
2021/11/07 06:27:57;;;;;;;23.05;14.13;;;;;;;14.28;57.10;94694.22;5006459;28;20031;-76
2021/11/07 06:30:24;;;;;;;24.27;12.93;;;;;;;14.28;57.26;94690.75;5002243;28;20018;-76
2021/11/07 06:32:49;;;;;;;24.50;13.48;;;;;;;13.76;58.39;94650.63;4997919;28;20044;-76
2021/11/07 06:35:15;;;;;;;21.33;14.10;;;;;;;14.34;57.98;94701.00;5004701;28;20069;-76
2021/11/07 06:37:42;;;;;;;27.00;13.38;;;;;;;14.49;57.33;94710.44;5001672;28;20128;-75
2021/11/07 06:40:10;;;;;;;26.40;14.65;;;;;;;14.45;57.41;94715.66;4998610;28;20745;-75
2021/11/07 06:42:35;;;;;;;25.38;15.98;;;;;;;14.52;57.48;94710.59;5010932;28;20467;-75
2021/11/07 06:45:01;;;;;;;25.75;14.30;;;;;;;14.54;57.39;94708.44;5006499;28;20095;-75
2021/11/07 06:47:27;;;;;;;23.30;15.13;;;;;;;14.57;57.23;94697.09;5000729;28;20423;-76
2021/11/07 06:49:53;;;;;;;23.48;15.55;;;;;;;14.75;56.96;94707.78;4999652;28;20045;-75
2021/11/07 06:52:19;;;;;;;22.63;13.68;;;;;;;14.71;56.91;94691.59;5001950;28;20037;-76
2021/11/07 06:54:44;;;;;;;20.33;13.60;;;;;;;15.01;56.22;94709.31;5007229;28;20076;-76
2021/11/07 06:57:10;;;;;;;19.55;12.75;;;;;;;14.93;56.59;94701.28;5003828;28;20063;-76
2021/11/07 06:59:36;;;;;;;21.77;12.82;;;;;;;14.93;56.56;94712.81;4995716;28;20041;-75
2021/11/07 07:02:01;;;;;;;20.83;14.00;;;;;;;14.77;57.36;94700.22;5006182;28;20045;-76
2021/11/07 07:04:26;;;;;;;26.10;15.25;;;;;;;14.87;56.71;94689.97;5006055;28;20042;-75
2021/11/07 07:06:52;;;;;;;25.83;16.05;;;;;;;15.04;56.57;94722.09;5003619;28;20032;-75
2021/11/07 07:09:28;;;;;;;23.48;13.90;;;;;;;14.93;57.30;94725.41;5005067;28;20337;-77
2021/11/07 07:12:11;;;;;;;25.33;13.88;;;;;;;14.92;57.10;94713.09;5009506;28;20460;-77
2021/11/07 07:14:48;;;;;;;22.02;13.82;;;;;;;14.90;57.68;94718.81;5006263;28;20546;-76
2021/11/07 07:20:08;;;;;;;23.67;12.93;;;;;;;15.01;57.44;94716.56;4998554;28;20042;-76
2021/11/07 07:23:25;;;;;;;24.38;15.93;;;;;;;14.95;57.95;94712.50;5009879;28;20041;-76
2021/11/07 07:35:57;;;;;;;28.98;17.58;;;;;;;14.71;58.05;94685.44;4988693;28;20041;-76
2021/11/07 07:38:24;;;;;;;31.60;18.02;;;;;;;14.91;58.07;94690.88;5001659;28;20068;-75
2021/11/07 07:40:50;;;;;;;23.23;15.88;;;;;;;14.39;59.69;94658.03;5002549;28;20266;-75
2021/11/07 07:43:15;;;;;;;32.53;19.30;;;;;;;14.77;58.10;94657.38;4998642;28;20518;-75
2021/11/07 07:45:41;;;;;;;26.17;17.50;;;;;;;14.91;58.41;94708.88;5002519;28;20404;-75
2021/11/07 07:48:07;;;;;;;29.27;16.60;;;;;;;15.02;57.71;94688.66;5001579;28;20128;-75
2021/11/07 07:50:34;;;;;;;28.67;17.70;;;;;;;15.22;57.52;94706.72;5006441;28;20051;-75
2021/11/07 07:53:00;;;;;;;31.17;18.42;;;;;;;15.13;57.17;94657.75;5001972;28;20059;-76
2021/11/07 07:55:25;;;;;;;31.40;18.83;;;;;;;15.36;56.79;94698.47;5000234;28;20037;-76
2021/11/07 07:57:51;;;;;;;33.10;18.05;;;;;;;15.46;56.79;94698.16;5001556;28;20034;-75
2021/11/07 08:00:20;;;;;;;31.73;18.52;;;;;;;15.40;56.63;94697.50;4999691;28;20036;-76
2021/11/07 08:02:46;;;;;;;31.45;19.17;;;;;;;15.49;56.65;94704.78;4998610;28;20030;-76
2021/11/07 08:05:12;;;;;;;26.42;17.75;;;;;;;15.59;55.97;94705.22;4998149;28;20038;-76
2021/11/07 08:07:38;;;;;;;31.88;17.83;;;;;;;15.78;55.11;94702.13;5002315;28;20038;-76
2021/11/07 08:10:04;;;;;;;28.88;18.33;;;;;;;15.82;54.89;94703.81;4999109;28;20040;-74
2021/11/07 08:12:29;;;;;;;39.00;18.55;;;;;;;15.36;56.24;94695.81;5005350;28;20021;-76
2021/11/07 08:14:55;;;;;;;31.08;17.52;;;;;;;15.48;55.94;94708.56;5000047;28;20038;-76
2021/11/07 08:17:21;;;;;;;29.77;18.00;;;;;;;15.18;57.01;94694.28;5000053;28;20125;-74
2021/11/07 08:19:49;;;;;;;33.00;17.92;;;;;;;15.02;57.66;94702.06;4997910;28;20041;-76
2021/11/07 08:22:17;;;;;;;26.80;17.85;;;;;;;15.37;57.20;94702.75;5001520;28;20587;-75
2021/11/07 08:24:43;;;;;;;29.42;18.63;;;;;;;15.38;57.39;94694.38;5002574;28;20562;-76
2021/11/07 08:27:08;;;;;;;31.80;18.75;;;;;;;15.27;57.58;94695.84;5001863;28;20042;-77
2021/11/07 08:29:34;;;;;;;35.67;19.25;;;;;;;15.40;57.32;94686.78;5002647;28;20045;-76
2021/11/07 08:31:59;;;;;;;33.63;18.50;;;;;;;15.35;57.67;94670.13;4998782;28;20116;-76
2021/11/07 08:34:28;;;;;;;31.83;19.77;;;;;;;14.52;60.22;94662.41;5003218;28;20046;-76
2021/11/07 08:37:00;;;;;;;32.78;19.60;;;;;;;14.96;59.78;94671.97;5007976;28;20112;-75
2021/11/07 08:39:37;;;;;;;31.67;19.15;;;;;;;14.46;60.76;94657.56;5005623;28;20049;-75
2021/11/07 08:42:10;;;;;;;32.75;18.08;;;;;;;14.54;61.25;94654.13;4996301;28;20100;-76
2021/11/07 09:02:00;;;;;;;35.00;19.75;;;;;;;12.99;69.61;94612.97;5004852;28;20092;-75
2021/11/07 09:04:19;;;;;;;32.70;19.42;;;;;;;12.74;70.38;94615.22;5000813;28;20439;-74
2021/11/07 09:06:58;;;;;;;32.00;19.40;;;;;;;12.95;70.13;94604.00;5001284;28;20121;-75
2021/11/07 09:09:32;;;;;;;32.58;19.63;;;;;;;13.18;69.73;94621.53;5000894;28;20356;-75
2021/11/07 09:11:58;;;;;;;37.20;20.42;;;;;;;13.47;69.30;94629.00;4996311;28;20037;-72
2021/11/07 09:14:30;;;;;;;33.90;20.65;;;;;;;13.52;68.17;94628.84;4997738;28;20050;-74
2021/11/07 09:16:56;;;;;;;39.72;22.40;;;;;;;13.54;68.30;94608.75;5000731;28;20176;-75
2021/11/07 09:19:25;;;;;;;36.22;20.00;;;;;;;13.56;67.59;94601.19;4999494;28;20958;-75
2021/11/07 09:21:56;;;;;;;29.30;18.98;;;;;;;13.77;66.69;94597.94;4994144;28;20030;-74
2021/11/07 09:24:33;;;;;;;34.28;19.38;;;;;;;13.98;66.62;94599.69;4996534;28;20036;-73
2021/11/07 09:27:00;;;;;;;34.40;19.77;;;;;;;13.69;67.03;94560.19;5005535;28;20423;-74
2021/11/07 09:29:31;;;;;;;33.00;18.40;;;;;;;13.97;66.87;94570.56;5000832;28;20088;-75
2021/11/07 09:34:37;;;;;;;32.78;19.23;;;;;;;14.32;65.71;94571.31;5006402;28;20438;-75
2021/11/07 09:37:06;;;;;;;36.88;17.80;;;;;;;14.58;63.95;94580.88;5002268;28;20041;-75
2021/11/07 09:39:48;;;;;;;34.08;18.58;;;;;;;14.80;63.10;94568.38;5005744;28;20052;-75
2021/11/07 09:42:34;;;;;;;31.85;17.08;;;;;;;15.24;62.17;94573.22;5001054;28;20053;-76
2021/11/07 09:48:07;;;;;;;28.58;16.67;;;;;;;15.78;60.09;94570.69;4983621;28;20823;-75
2021/11/07 09:50:32;;;;;;;;;;;;;;;16.18;59.24;94574.44;5009926;28;20499;-76
2021/11/07 09:52:58;;;;;;;25.88;16.35;;;;;;;16.09;58.66;94549.59;5006482;28;19928;-76
2021/11/07 09:55:27;;;;;;;27.67;16.17;;;;;;;16.16;58.57;94547.16;5004927;28;20192;-76
2021/11/07 09:57:56;;;;;;;26.95;16.67;;;;;;;16.33;57.88;94545.47;5004584;28;20475;-77
2021/11/07 10:00:33;;;;;;;35.58;16.58;;;;;;;16.66;56.83;94555.06;5008059;28;20036;-76
2021/11/07 10:02:58;;;;;;;26.30;16.83;;;;;;;16.71;56.57;94551.38;5003463;28;20145;-74
2021/11/07 10:05:25;;;;;;;25.83;15.65;;;;;;;16.67;56.00;94547.78;4999065;28;20492;-76
2021/11/07 10:07:56;;;;;;;30.67;16.88;;;;;;;16.74;55.72;94537.25;5003986;28;20639;-76
2021/11/07 10:10:24;;;;;;;26.75;16.90;;;;;;;16.87;55.68;94533.47;5003858;28;20043;-76
2021/11/07 10:12:51;;;;;;;25.23;16.67;;;;;;;16.94;55.39;94528.34;5010680;28;20045;-75
2021/11/07 10:15:29;;;;;;;31.33;17.13;;;;;;;16.88;55.17;94513.53;5001253;28;20109;-75
2021/11/07 10:18:05;;;;;;;27.80;16.90;;;;;;;17.07;55.03;94521.03;5002856;28;20042;-75
2021/11/07 10:20:46;;;;;;;27.92;17.08;;;;;;;17.27;55.04;94524.75;5004240;28;20416;-76
2021/11/07 10:23:18;;;;;;;24.13;15.10;;;;;;;17.22;54.64;94524.97;5002289;28;20202;-75
2021/11/07 10:26:08;;;;;;;27.52;16.70;;;;;;;17.25;54.71;94516.25;5005407;28;20030;-75
2021/11/07 10:28:44;;;;;;;24.67;16.27;;;;;;;17.34;54.46;94508.84;5003763;28;20044;-76
2021/11/07 10:31:31;;;;;;;24.20;15.65;;;;;;;17.41;53.97;94490.22;5007536;28;20045;-77
2021/11/07 10:46:17;;;;;;;27.80;16.98;;;;;;;17.78;52.69;94448.66;5004244;28;20100;-77
2021/11/07 10:53:26;;;;;;;208.57;112.33;;;;;;;17.73;52.57;94435.47;5002711;28;20467;-75
2021/11/07 10:56:01;;;;;;;80.93;46.78;;;;;;;17.84;52.34;94441.91;5005502;28;20049;-76
2021/11/07 10:58:31;;;;;;;100.93;58.67;;;;;;;18.08;52.04;94443.72;4999830;28;20042;-76
2021/11/07 11:00:59;;;;;;;72.35;41.55;;;;;;;18.05;51.88;94436.34;5002082;28;20029;-75
2021/11/07 11:03:25;;;;;;;36.30;23.60;;;;;;;17.69;52.41;94412.28;5003322;28;20040;-74
2021/11/07 11:08:35;;;;;;;26.73;16.70;;;;;;;17.84;52.73;94404.25;4998435;28;20048;-77
2021/11/07 11:11:20;;;;;;;26.38;15.93;;;;;;;17.71;53.11;94400.03;5001075;28;20504;-78
2021/11/07 11:16:51;;;;;;;24.33;15.40;;;;;;;17.84;52.71;94406.16;4995941;28;20213;-76
2021/11/07 11:19:35;;;;;;;26.10;16.17;;;;;;;18.02;52.32;94400.13;5005849;28;20051;-77
2021/11/07 11:33:06;;;;;;;26.80;15.50;;;;;;;18.65;51.92;94386.66;5002948;28;20518;-76
2021/11/07 11:35:45;;;;;;;22.33;14.82;;;;;;;18.30;51.48;94393.88;5004028;28;20038;-76
2021/11/07 11:38:28;;;;;;;27.38;16.25;;;;;;;17.62;52.68;94369.81;5001333;28;20040;-76
2021/11/07 11:43:38;;;;;;;26.83;16.15;;;;;;;17.41;54.13;94371.91;5002268;28;20608;-75
2021/11/07 11:46:27;;;;;;;24.50;15.43;;;;;;;17.76;53.72;94382.88;5012729;28;20036;-76
2021/11/07 11:57:33;;;;;;;23.88;14.48;;;;;;;16.38;58.24;94327.81;5007632;28;20159;-76
2021/11/07 12:03:11;;;;;;;22.13;13.70;;;;;;;16.38;58.97;94328.59;5005372;28;20049;-76
2021/11/07 12:11:01;;;;;;;17.50;12.07;;;;;;;16.61;58.09;94326.22;5003557;28;20300;-76
2021/11/07 12:14:15;;;;;;;24.80;14.63;;;;;;;16.90;57.37;94325.94;5001541;28;20044;-76
2021/11/07 12:16:59;;;;;;;23.20;13.00;;;;;;;17.14;56.15;94296.34;5002064;28;20046;-76
2021/11/07 12:19:39;;;;;;;19.08;12.95;;;;;;;17.65;54.59;94328.78;5021097;28;20045;-77
2021/11/07 12:22:14;;;;;;;26.25;14.07;;;;;;;17.88;53.71;94324.41;5003141;28;20298;-76
2021/11/07 12:24:46;;;;;;;23.30;14.00;;;;;;;17.80;53.79;94321.84;5018660;28;20119;-76
2021/11/07 12:27:22;;;;;;;22.83;14.73;;;;;;;17.27;54.79;94305.09;5001275;28;20037;-76
2021/11/07 12:29:55;;;;;;;24.48;14.85;;;;;;;16.89;56.41;94313.63;5017409;28;20038;-76
2021/11/07 12:32:37;;;;;;;20.40;13.23;;;;;;;16.93;56.37;94298.38;5020874;28;20470;-74
2021/11/07 12:35:15;;;;;;;21.20;12.68;;;;;;;17.04;55.95;94296.78;5009936;28;20075;-76
2021/11/07 12:40:39;;;;;;;23.35;13.85;;;;;;;17.20;55.79;94296.09;5000893;28;20060;-76
2021/11/07 12:43:08;;;;;;;25.67;14.68;;;;;;;17.71;54.67;94299.72;4998911;28;20033;-76
2021/11/07 12:45:39;;;;;;;28.65;16.30;;;;;;;17.79;54.62;94294.19;5000465;28;20661;-75
2021/11/07 12:48:07;;;;;;;28.02;15.25;;;;;;;17.63;54.70;94295.28;5000396;28;20065;-76
2021/11/07 12:50:58;;;;;;;26.75;15.73;;;;;;;17.73;54.28;94290.19;5003406;28;20124;-75
2021/11/07 12:53:27;;;;;;;18.70;12.85;;;;;;;17.58;54.18;94282.88;4999627;28;20049;-76
2021/11/07 12:55:52;;;;;;;24.05;14.20;;;;;;;17.47;55.16;94279.91;5004244;28;20400;-76
2021/11/07 12:58:18;;;;;;;20.08;13.18;;;;;;;17.38;55.10;94273.91;4999063;28;20710;-76
2021/11/07 13:00:45;;;;;;;19.98;12.90;;;;;;;17.26;55.57;94273.22;5000403;28;20018;-76
2021/11/07 13:03:13;;;;;;;20.65;14.05;;;;;;;17.03;56.46;94272.94;5000555;28;20053;-75
2021/11/07 13:05:41;;;;;;;20.52;13.18;;;;;;;17.24;56.12;94278.94;5003799;28;20037;-74
2021/11/07 13:08:09;;;;;;;19.67;11.63;;;;;;;17.27;55.95;94266.69;5001129;28;20037;-74
2021/11/07 13:21:07;;;;;;;23.77;11.05;;;;;;;17.48;55.21;94281.50;5000309;28;20118;-76
2021/11/07 13:31:24;;;;;;;16.73;10.88;;;;;;;17.65;53.79;94277.66;4999363;28;20028;-76
2021/11/07 13:33:49;;;;;;;18.40;10.57;;;;;;;17.73;53.77;94267.88;4997539;28;20057;-77
2021/11/07 13:36:18;;;;;;;19.48;12.85;;;;;;;17.99;53.43;94281.63;4994555;28;20559;-77
2021/11/07 13:38:46;;;;;;;20.02;11.45;;;;;;;18.37;52.33;94278.28;4993366;28;20423;-77
2021/11/07 13:41:22;;;;;;;20.67;12.52;;;;;;;18.53;51.74;94273.63;4994396;28;20029;-77
2021/11/07 13:43:59;;;;;;;16.02;10.50;;;;;;;18.67;51.22;94268.56;4991192;28;20050;-77
2021/11/07 13:46:25;;;;;;;14.40;9.90;;;;;;;18.81;50.99;94263.50;5000467;28;20566;-76
2021/11/07 13:49:02;;;;;;;15.93;9.50;;;;;;;19.28;50.15;94273.25;4996067;28;20060;-76
2021/11/07 13:51:35;;;;;;;13.93;9.73;;;;;;;19.43;49.42;94256.22;5001022;28;20456;-77
2021/11/07 13:54:05;;;;;;;14.35;10.15;;;;;;;19.63;49.22;94271.25;5005720;28;20041;-76
2021/11/07 13:56:35;;;;;;;14.07;10.57;;;;;;;19.78;48.90;94274.19;5006845;28;20484;-78
2021/11/07 13:59:00;;;;;;;17.10;10.30;;;;;;;19.82;49.01;94261.53;5006640;28;20409;-76